createdAt,value
2023-05-12T00:00:41.803Z,2.50
2023-05-12T00:02:46.495Z,2.50
2023-05-12T00:04:51.288Z,2.70
2023-05-12T00:06:56.003Z,2.40
2023-05-12T00:09:00.704Z,2.40
2023-05-12T00:11:08.373Z,2.80
2023-05-12T00:13:13.166Z,2.90
2023-05-12T00:15:18.047Z,2.20
2023-05-12T00:17:22.830Z,2.80
2023-05-12T00:19:27.481Z,2.50
2023-05-12T00:21:32.249Z,3.10
2023-05-12T00:23:36.981Z,2.80
2023-05-12T00:25:41.744Z,2.80
2023-05-12T00:27:46.413Z,2.50
2023-05-12T00:29:51.077Z,2.60
2023-05-12T00:31:56.964Z,2.80
2023-05-12T00:34:01.830Z,2.70
2023-05-12T00:36:07.967Z,3.10
2023-05-12T00:38:12.686Z,2.90
2023-05-12T00:40:17.683Z,2.80
2023-05-12T00:42:22.597Z,3.00
2023-05-12T00:44:27.334Z,3.00
2023-05-12T00:46:32.128Z,3.00
2023-05-12T00:48:37.589Z,3.10
2023-05-12T00:50:42.630Z,3.20
2023-05-12T00:52:48.302Z,3.00
2023-05-12T00:54:53.078Z,3.10
2023-05-12T00:56:58.921Z,2.90
2023-05-12T00:59:04.189Z,2.80
2023-05-12T01:01:09.058Z,3.00
2023-05-12T01:03:13.872Z,3.00
2023-05-12T01:05:19.444Z,2.70
2023-05-12T01:07:25.245Z,2.90
2023-05-12T01:09:30.414Z,2.90
2023-05-12T01:11:35.634Z,2.80
2023-05-12T01:13:41.860Z,2.90
2023-05-12T01:15:48.273Z,2.70
2023-05-12T01:17:57.391Z,2.90
2023-05-12T01:20:06.238Z,3.00
2023-05-12T01:22:11.459Z,2.80
2023-05-12T01:24:19.756Z,3.20
2023-05-12T01:26:24.990Z,3.10
2023-05-12T01:28:29.927Z,2.70
2023-05-12T01:30:36.186Z,3.20
2023-05-12T01:32:42.065Z,3.30
2023-05-12T01:34:47.023Z,3.70
2023-05-12T01:36:52.394Z,3.80
2023-05-12T01:38:57.350Z,3.50
2023-05-12T01:41:02.116Z,3.00
2023-05-12T01:43:06.803Z,3.40
2023-05-12T01:45:14.677Z,3.70
2023-05-12T01:47:19.600Z,3.50
2023-05-12T01:49:30.647Z,2.90
2023-05-12T01:51:35.768Z,3.50
2023-05-12T01:53:40.567Z,3.80
2023-05-12T01:55:45.383Z,3.90
2023-05-12T01:57:50.393Z,3.90
2023-05-12T01:59:55.202Z,3.80
2023-05-12T02:02:00.092Z,4.10
2023-05-12T02:04:07.913Z,3.80
2023-05-12T02:06:13.443Z,4.00
2023-05-12T02:08:18.131Z,4.00
2023-05-12T02:10:22.944Z,4.10
2023-05-12T02:12:27.674Z,4.60
2023-05-12T02:14:32.372Z,4.70
2023-05-12T02:16:37.202Z,5.00
2023-05-12T02:18:42.221Z,5.60
2023-05-12T02:20:47.135Z,5.20
2023-05-12T02:22:51.854Z,5.50
2023-05-12T02:24:56.883Z,5.30
2023-05-12T02:27:01.736Z,6.20
2023-05-12T02:29:07.518Z,5.70
2023-05-12T02:31:12.310Z,5.60
2023-05-12T02:33:18.848Z,6.00
2023-05-12T02:35:23.694Z,5.20
2023-05-12T02:37:28.396Z,5.10
2023-05-12T02:39:33.055Z,5.50
2023-05-12T02:41:37.792Z,5.20
2023-05-12T02:43:42.757Z,4.60
2023-05-12T02:45:47.407Z,4.10
2023-05-12T02:47:52.051Z,5.00
2023-05-12T02:49:56.929Z,4.90
2023-05-12T02:52:01.742Z,4.50
2023-05-12T02:54:06.978Z,4.30
2023-05-12T02:56:11.815Z,4.60
2023-05-12T02:58:16.572Z,4.40
2023-05-12T03:00:21.542Z,4.40
2023-05-12T03:02:26.570Z,5.20
2023-05-12T03:04:31.324Z,5.10
2023-05-12T03:06:35.997Z,5.10
2023-05-12T03:08:43.676Z,5.50
2023-05-12T03:10:48.511Z,5.50
2023-05-12T03:12:53.230Z,6.20
2023-05-12T03:14:58.677Z,6.20
2023-05-12T03:17:03.967Z,6.10
2023-05-12T03:19:08.856Z,5.80
2023-05-12T03:21:13.570Z,6.10
2023-05-12T03:23:18.438Z,6.30
2023-05-12T03:25:23.232Z,6.10
2023-05-12T03:27:28.023Z,6.70
2023-05-12T03:29:32.745Z,5.50
2023-05-12T03:31:37.640Z,9.40
2023-05-12T03:33:42.715Z,7.20
2023-05-12T03:35:47.640Z,5.80
2023-05-12T03:37:52.506Z,5.50
2023-05-12T03:39:57.388Z,6.40
2023-05-12T03:42:02.065Z,6.50
2023-05-12T03:44:07.792Z,6.00
2023-05-12T03:46:12.528Z,6.20
2023-05-12T03:48:17.338Z,4.80
2023-05-12T03:50:22.380Z,5.70
2023-05-12T03:52:27.246Z,4.50
2023-05-12T03:54:31.953Z,4.20
2023-05-12T03:56:36.510Z,5.00
2023-05-12T03:58:41.243Z,5.20
2023-05-12T04:00:46.114Z,5.00
2023-05-12T04:02:50.828Z,4.80
2023-05-12T04:04:55.462Z,5.20
2023-05-12T04:07:01.060Z,4.30
2023-05-12T04:09:05.920Z,5.10
2023-05-12T04:11:10.690Z,4.70
2023-05-12T04:13:15.362Z,5.10
2023-05-12T04:15:20.170Z,4.70
2023-05-12T04:17:24.895Z,5.40
2023-05-12T04:19:30.348Z,4.40
2023-05-12T04:21:35.046Z,5.30
2023-05-12T04:23:39.803Z,4.20
2023-05-12T04:25:44.702Z,4.80
2023-05-12T04:27:49.433Z,4.70
2023-05-12T04:29:54.504Z,5.00
2023-05-12T04:31:59.545Z,4.70
2023-05-12T04:34:04.353Z,3.70
2023-05-12T04:36:10.578Z,4.50
2023-05-12T04:38:18.158Z,5.00
2023-05-12T04:40:23.088Z,4.40
2023-05-12T04:42:28.322Z,5.00
2023-05-12T04:44:33.860Z,4.50
2023-05-12T04:46:38.590Z,4.30
2023-05-12T04:48:43.532Z,3.90
2023-05-12T04:50:48.383Z,3.50
2023-05-12T04:52:54.338Z,4.20
2023-05-12T04:54:59.747Z,4.50
2023-05-12T04:57:04.508Z,4.30
2023-05-12T04:59:09.497Z,4.20
2023-05-12T05:01:14.273Z,4.20
2023-05-12T05:03:19.057Z,4.00
2023-05-12T05:05:23.842Z,4.80
2023-05-12T05:07:28.997Z,5.10
2023-05-12T05:09:36.084Z,4.10
2023-05-12T05:11:41.350Z,3.90
2023-05-12T05:13:46.062Z,4.00
2023-05-12T05:15:54.221Z,3.90
2023-05-12T05:18:01.907Z,4.30
2023-05-12T05:20:11.805Z,4.20
2023-05-12T05:22:18.199Z,4.40
2023-05-12T05:24:22.825Z,4.40
2023-05-12T05:26:27.536Z,4.00
2023-05-12T05:28:32.342Z,4.00
2023-05-12T05:30:38.329Z,3.10
2023-05-12T05:32:43.801Z,3.90
2023-05-12T05:34:48.580Z,3.90
2023-05-12T05:36:54.307Z,4.00
2023-05-12T05:38:58.998Z,3.50
2023-05-12T05:41:03.971Z,14.60
2023-05-12T05:43:08.687Z,5.60
2023-05-12T05:45:13.778Z,3.70
2023-05-12T05:47:20.557Z,4.40
2023-05-12T05:49:25.317Z,3.80
2023-05-12T05:51:31.411Z,3.70
2023-05-12T05:53:37.147Z,3.80
2023-05-12T05:55:41.935Z,3.10
2023-05-12T05:57:46.603Z,3.00
2023-05-12T05:59:51.605Z,3.40
2023-05-12T06:01:56.516Z,3.30
2023-05-12T06:04:01.413Z,3.20
2023-05-12T06:06:06.652Z,3.00
2023-05-12T06:08:11.565Z,3.70
2023-05-12T06:10:19.677Z,3.00
2023-05-12T06:12:24.652Z,3.20
2023-05-12T06:14:29.309Z,3.40
2023-05-12T06:16:34.193Z,2.70
2023-05-12T06:18:39.280Z,2.90
2023-05-12T06:20:44.096Z,2.80
2023-05-12T06:22:49.036Z,3.00
2023-05-12T06:24:54.561Z,2.70
2023-05-12T06:26:59.358Z,2.90
2023-05-12T06:29:05.915Z,2.10
2023-05-12T06:31:11.361Z,3.10
2023-05-12T06:33:16.094Z,2.60
2023-05-12T06:35:22.545Z,2.50
2023-05-12T06:37:27.456Z,3.00
2023-05-12T06:39:32.231Z,3.30
2023-05-12T06:41:36.943Z,3.10
2023-05-12T06:43:42.416Z,2.90
2023-05-12T06:45:47.201Z,2.60
2023-05-12T06:47:52.158Z,2.80
2023-05-12T06:49:56.973Z,3.00
2023-05-12T06:52:01.712Z,2.80
2023-05-12T06:54:06.886Z,2.40
2023-05-12T06:56:11.511Z,2.70
2023-05-12T06:58:16.372Z,2.70
2023-05-12T07:00:22.232Z,3.10
2023-05-12T07:02:26.975Z,2.60
2023-05-12T07:04:31.782Z,2.80
2023-05-12T07:06:39.418Z,2.70
2023-05-12T07:08:44.180Z,2.80
2023-05-12T07:10:49.117Z,2.40
2023-05-12T07:12:53.851Z,2.60
2023-05-12T07:14:58.783Z,2.30
2023-05-12T07:17:03.773Z,2.50
2023-05-12T07:19:08.561Z,2.30
2023-05-12T07:21:13.892Z,2.70
2023-05-12T07:23:18.668Z,2.60
2023-05-12T07:25:23.805Z,2.50
2023-05-12T07:27:28.623Z,2.40
2023-05-12T07:29:33.363Z,2.70
2023-05-12T07:31:38.163Z,2.60
2023-05-12T07:33:43.042Z,2.60
2023-05-12T07:35:48.800Z,2.50
2023-05-12T07:37:53.639Z,2.80
2023-05-12T07:39:58.410Z,2.20
2023-05-12T07:42:03.186Z,2.50
2023-05-12T07:44:08.098Z,2.20
2023-05-12T07:46:13.128Z,2.90
2023-05-12T07:48:17.811Z,2.40
2023-05-12T07:50:22.649Z,2.30
2023-05-12T07:52:27.364Z,2.60
2023-05-12T07:54:32.184Z,2.30
2023-05-12T07:56:36.811Z,3.00
2023-05-12T07:58:41.459Z,2.60
2023-05-12T08:00:46.170Z,3.00
2023-05-12T08:02:51.071Z,2.90
2023-05-12T08:04:55.969Z,3.30
2023-05-12T08:07:00.756Z,2.90
2023-05-12T08:09:05.833Z,3.20
2023-05-12T08:11:13.644Z,3.10
2023-05-12T08:13:18.532Z,3.20
2023-05-12T08:15:23.445Z,3.30
2023-05-12T08:17:29.425Z,3.20
2023-05-12T08:19:34.398Z,3.40
2023-05-12T08:21:39.354Z,3.30
2023-05-12T08:23:44.167Z,3.50
2023-05-12T08:25:48.995Z,3.40
2023-05-12T08:27:54.022Z,2.70
2023-05-12T08:29:58.852Z,3.50
2023-05-12T08:32:04.550Z,3.20
2023-05-12T08:34:11.134Z,2.90
2023-05-12T08:36:16.122Z,3.20
2023-05-12T08:38:21.169Z,3.20
2023-05-12T08:40:27.366Z,3.20
2023-05-12T08:42:41.511Z,3.80
2023-05-12T08:44:46.515Z,3.90
2023-05-12T08:46:52.656Z,3.60
2023-05-12T08:48:59.575Z,3.30
2023-05-12T08:51:06.156Z,3.30
2023-05-12T08:53:13.660Z,3.40
2023-05-12T08:55:20.431Z,3.00
2023-05-12T08:57:28.120Z,3.50
2023-05-12T08:59:34.337Z,2.90
2023-05-12T09:01:39.650Z,3.20
2023-05-12T09:03:44.649Z,3.30
2023-05-12T09:05:50.141Z,3.20
2023-05-12T09:07:55.877Z,3.00
2023-05-12T09:10:05.042Z,3.20
2023-05-12T09:12:16.881Z,3.10
2023-05-12T09:14:25.195Z,3.20
2023-05-12T09:16:35.928Z,3.40
2023-05-12T09:18:50.735Z,3.50
2023-05-12T09:20:56.002Z,3.30
2023-05-12T09:23:11.106Z,3.20
2023-05-12T09:25:20.745Z,3.20
2023-05-12T09:27:29.532Z,3.00
2023-05-12T09:29:45.133Z,3.00
2023-05-12T09:31:54.428Z,2.90
2023-05-12T09:33:59.809Z,3.00
2023-05-12T09:36:05.037Z,2.80
2023-05-12T09:38:11.512Z,3.10
2023-05-12T09:40:17.525Z,3.20
2023-05-12T09:42:24.273Z,3.20
2023-05-12T09:44:30.039Z,3.00
2023-05-12T09:46:35.300Z,3.20
2023-05-12T09:48:40.246Z,2.80
2023-05-12T09:50:49.881Z,2.80
2023-05-12T09:52:54.924Z,3.10
2023-05-12T09:55:06.338Z,3.30
2023-05-12T09:57:15.660Z,2.90
2023-05-12T09:59:22.431Z,3.30
2023-05-12T10:01:28.380Z,3.80
2023-05-12T10:03:36.251Z,4.20
2023-05-12T10:05:48.807Z,3.70
2023-05-12T10:07:57.653Z,3.50
2023-05-12T10:10:08.641Z,3.00
2023-05-12T10:12:14.386Z,2.80
2023-05-12T10:14:19.290Z,3.00
2023-05-12T10:16:24.442Z,3.10
2023-05-12T10:18:29.454Z,3.10
2023-05-12T10:20:35.170Z,3.00
2023-05-12T10:22:42.158Z,3.40
2023-05-12T10:24:48.905Z,2.80
2023-05-12T10:26:54.858Z,3.10
2023-05-12T10:29:00.287Z,3.00
2023-05-12T10:31:10.276Z,3.70
2023-05-12T10:33:15.169Z,3.10
2023-05-12T10:35:20.131Z,4.10
2023-05-12T10:37:25.250Z,3.20
2023-05-12T10:39:33.797Z,3.30
2023-05-12T10:41:38.786Z,3.20
2023-05-12T10:43:44.996Z,3.50
2023-05-12T10:46:08.229Z,3.00
2023-05-12T10:48:17.062Z,2.70
2023-05-12T10:50:29.524Z,2.70
2023-05-12T10:52:34.336Z,2.50
2023-05-12T10:54:42.077Z,2.50
2023-05-12T10:56:47.911Z,2.30
2023-05-12T10:59:16.502Z,2.80
2023-05-12T11:01:26.443Z,1.80
2023-05-12T11:03:33.357Z,2.20
2023-05-12T11:05:40.321Z,2.80
2023-05-12T11:07:50.116Z,2.40
2023-05-12T11:09:59.564Z,2.40
2023-05-12T11:12:08.863Z,2.60
2023-05-12T11:14:14.220Z,2.50
2023-05-12T11:16:20.566Z,2.30
2023-05-12T11:18:25.951Z,2.50
2023-05-12T11:20:31.345Z,2.60
2023-05-12T11:22:36.465Z,2.50
2023-05-12T11:24:42.417Z,2.80
2023-05-12T11:26:47.618Z,2.60
2023-05-12T11:28:52.601Z,2.90
2023-05-12T11:30:57.278Z,3.20
2023-05-12T11:33:06.143Z,2.90
2023-05-12T11:35:17.274Z,3.20
2023-05-12T11:37:22.105Z,2.90
2023-05-12T11:39:28.729Z,3.70
2023-05-12T11:41:33.760Z,3.60
2023-05-12T11:43:38.562Z,3.90
2023-05-12T11:45:45.315Z,3.80
2023-05-12T11:47:50.549Z,3.60
2023-05-12T11:49:56.070Z,3.00
2023-05-12T11:52:02.175Z,2.80
2023-05-12T11:54:08.754Z,3.40
2023-05-12T11:56:19.899Z,3.30
2023-05-12T11:58:26.890Z,3.30
2023-05-12T12:00:33.984Z,3.20
2023-05-12T12:02:38.905Z,3.10
2023-05-12T12:04:43.852Z,3.50
2023-05-12T12:06:49.099Z,4.00
2023-05-12T12:08:55.319Z,3.30
2023-05-12T12:11:02.748Z,3.70
2023-05-12T12:13:08.533Z,2.40
2023-05-12T12:15:13.855Z,2.80
2023-05-12T12:17:18.616Z,2.60
2023-05-12T12:19:23.395Z,3.00
2023-05-12T12:21:28.560Z,3.50
2023-05-12T12:23:43.832Z,3.20
2023-05-12T12:25:52.308Z,3.70
2023-05-12T12:27:57.079Z,3.30
2023-05-12T12:30:01.888Z,3.60
2023-05-12T12:32:07.482Z,3.60
2023-05-12T12:34:12.301Z,3.20
2023-05-12T12:36:17.058Z,3.10
2023-05-12T12:38:21.869Z,2.90
2023-05-12T12:40:26.597Z,2.80
2023-05-12T12:42:31.220Z,3.00
2023-05-12T12:44:38.888Z,3.10
2023-05-12T12:46:43.614Z,5.20
2023-05-12T12:48:48.417Z,3.00
2023-05-12T12:50:53.140Z,3.20
2023-05-12T12:52:57.817Z,3.00
2023-05-12T12:55:02.663Z,2.80
2023-05-12T12:57:07.538Z,2.70
2023-05-12T12:59:12.254Z,3.10
2023-05-12T13:01:16.985Z,2.90
2023-05-12T13:03:21.830Z,3.00
2023-05-12T13:05:26.479Z,3.30
2023-05-12T13:07:31.444Z,3.30
2023-05-12T13:09:36.212Z,3.10
2023-05-12T13:11:40.994Z,2.90
2023-05-12T13:13:45.657Z,3.10
2023-05-12T13:15:50.496Z,3.20
2023-05-12T13:17:55.267Z,2.80
2023-05-12T13:20:00.034Z,3.30
2023-05-12T13:22:05.031Z,3.10
2023-05-12T13:24:09.975Z,2.80
2023-05-12T13:26:14.657Z,2.50
2023-05-12T13:28:19.414Z,3.00
2023-05-12T13:30:24.274Z,2.50
2023-05-12T13:32:28.999Z,2.80
2023-05-12T13:34:33.684Z,2.30
2023-05-12T13:36:38.409Z,2.50
2023-05-12T13:38:43.178Z,2.80
2023-05-12T13:40:47.883Z,2.70
2023-05-12T13:42:52.549Z,2.60
2023-05-12T13:44:57.198Z,2.80
2023-05-12T13:47:02.145Z,2.40
2023-05-12T13:49:06.869Z,2.60
2023-05-12T13:51:11.602Z,2.70
2023-05-12T13:53:16.320Z,2.80
2023-05-12T13:55:21.853Z,2.70
2023-05-12T13:57:26.918Z,2.40
2023-05-12T13:59:31.890Z,2.70
2023-05-12T14:01:36.651Z,2.70
2023-05-12T14:03:41.412Z,2.90
2023-05-12T14:05:46.205Z,3.00
2023-05-12T14:07:51.171Z,3.50
2023-05-12T14:09:55.832Z,3.40
2023-05-12T14:12:03.017Z,2.50
2023-05-12T14:14:07.611Z,2.60
2023-05-12T14:16:12.322Z,2.40
2023-05-12T14:18:16.887Z,2.80
2023-05-12T14:20:21.693Z,2.80
2023-05-12T14:22:26.922Z,2.90
2023-05-12T14:24:31.597Z,2.80
2023-05-12T14:26:36.399Z,2.90
2023-05-12T14:28:41.088Z,3.50
2023-05-12T14:30:45.942Z,3.70
2023-05-12T14:32:50.825Z,4.10
2023-05-12T14:34:55.494Z,3.90
2023-05-12T14:37:00.188Z,3.60
2023-05-12T14:39:05.045Z,4.30
2023-05-12T14:41:09.753Z,4.40
2023-05-12T14:43:14.481Z,4.20
2023-05-12T14:45:19.563Z,3.50
2023-05-12T14:47:24.681Z,3.10
2023-05-12T14:49:29.392Z,3.10
2023-05-12T14:51:34.052Z,3.40
2023-05-12T14:53:38.814Z,4.00
2023-05-12T14:55:43.436Z,4.10
2023-05-12T14:57:48.112Z,3.50
2023-05-12T14:59:52.853Z,3.30
2023-05-12T15:01:57.533Z,4.10
2023-05-12T15:04:02.335Z,4.40
2023-05-12T15:06:07.895Z,3.90
2023-05-12T15:08:12.994Z,4.30
2023-05-12T15:10:17.729Z,3.70
2023-05-12T15:12:22.453Z,3.60
2023-05-12T15:14:27.315Z,3.70
2023-05-12T15:16:32.112Z,4.00
2023-05-12T15:18:36.827Z,9.50
2023-05-12T15:20:41.519Z,4.70
2023-05-12T15:22:47.131Z,3.90
2023-05-12T15:24:51.838Z,4.30
2023-05-12T15:26:56.514Z,4.80
2023-05-12T15:29:01.177Z,4.30
2023-05-12T15:31:05.995Z,4.20
2023-05-12T15:33:10.749Z,4.30
2023-05-12T15:35:15.522Z,4.30
2023-05-12T15:37:20.191Z,4.00
2023-05-12T15:39:24.768Z,3.70
2023-05-12T15:41:29.486Z,3.90
2023-05-12T15:43:34.438Z,4.70
2023-05-12T15:45:39.292Z,4.90
2023-05-12T15:47:44.016Z,4.20
2023-05-12T15:49:49.733Z,3.90
2023-05-12T15:51:54.523Z,3.60
2023-05-12T15:53:59.181Z,3.50
2023-05-12T15:56:04.857Z,3.70
2023-05-12T15:58:09.519Z,3.70
2023-05-12T16:00:15.915Z,3.90
2023-05-12T16:02:21.326Z,4.00
2023-05-12T16:04:26.151Z,4.60
2023-05-12T16:06:30.809Z,5.40
2023-05-12T16:08:35.397Z,4.80
2023-05-12T16:10:40.113Z,4.50
2023-05-12T16:12:46.910Z,4.50
2023-05-12T16:14:53.287Z,4.80
2023-05-12T16:16:58.091Z,4.40
2023-05-12T16:19:02.838Z,4.10
2023-05-12T16:21:07.651Z,3.80
2023-05-12T16:23:12.366Z,3.30
2023-05-12T16:25:17.126Z,3.70
2023-05-12T16:27:21.858Z,3.90
2023-05-12T16:29:26.867Z,3.40
2023-05-12T16:31:31.715Z,4.00
2023-05-12T16:33:36.542Z,3.80
2023-05-12T16:35:41.309Z,3.30
2023-05-12T16:37:46.015Z,3.50
2023-05-12T16:39:51.513Z,3.40
2023-05-12T16:41:56.206Z,3.20
2023-05-12T16:44:00.950Z,3.80
2023-05-12T16:46:05.911Z,3.10
2023-05-12T16:48:10.600Z,3.30
2023-05-12T16:50:15.609Z,3.90
2023-05-12T16:52:20.313Z,3.90
2023-05-12T16:54:25.051Z,3.80
2023-05-12T16:56:29.858Z,3.80
2023-05-12T16:58:34.466Z,2.80
2023-05-12T17:00:39.167Z,3.60
2023-05-12T17:02:43.991Z,3.50
2023-05-12T17:04:48.754Z,3.10
2023-05-12T17:06:53.513Z,3.00
2023-05-12T17:08:58.239Z,3.80
2023-05-12T17:11:02.939Z,3.70
2023-05-12T17:13:07.772Z,3.60
2023-05-12T17:15:13.391Z,3.20
2023-05-12T17:17:18.180Z,3.70
2023-05-12T17:19:22.930Z,3.30
2023-05-12T17:21:27.893Z,3.30
2023-05-12T17:23:32.689Z,4.20
2023-05-12T17:25:37.454Z,3.80
2023-05-12T17:27:42.130Z,3.40
2023-05-12T17:29:46.860Z,3.70
2023-05-12T17:31:51.686Z,2.90
2023-05-12T17:33:56.524Z,3.20
2023-05-12T17:36:12.325Z,2.60
2023-05-12T17:38:17.957Z,3.50
2023-05-12T17:40:23.173Z,3.80
2023-05-12T17:42:27.879Z,3.60
2023-05-12T17:44:32.553Z,3.20
2023-05-12T17:46:37.361Z,3.80
2023-05-12T17:48:42.098Z,3.80
2023-05-12T17:50:47.887Z,3.20
2023-05-12T17:52:53.124Z,3.30
2023-05-12T17:54:57.792Z,3.00
2023-05-12T17:57:02.488Z,3.10
2023-05-12T17:59:07.170Z,3.50
2023-05-12T18:01:11.869Z,3.70
2023-05-12T18:03:16.838Z,3.50
2023-05-12T18:05:22.227Z,3.20
2023-05-12T18:07:27.225Z,3.10
2023-05-12T18:09:32.095Z,4.10
2023-05-12T18:11:36.920Z,3.90
2023-05-12T18:13:41.551Z,4.60
2023-05-12T18:15:48.228Z,4.20
2023-05-12T18:17:53.258Z,4.40
2023-05-12T18:19:58.046Z,4.40
2023-05-12T18:22:02.724Z,5.70
2023-05-12T18:24:08.284Z,5.20
2023-05-12T18:26:16.136Z,4.80
2023-05-12T18:28:20.756Z,4.40
2023-05-12T18:30:25.432Z,4.00
2023-05-12T18:32:30.267Z,4.10
2023-05-12T18:34:35.723Z,4.10
2023-05-12T18:36:40.634Z,5.60
2023-05-12T18:38:45.496Z,5.30
2023-05-12T18:40:50.202Z,5.50
2023-05-12T18:42:54.857Z,6.00
2023-05-12T18:44:59.658Z,5.80
2023-05-12T18:47:04.811Z,5.10
2023-05-12T18:49:12.484Z,5.50
2023-05-12T18:51:17.164Z,4.90
2023-05-12T18:53:22.108Z,4.60
2023-05-12T18:55:26.941Z,3.90
2023-05-12T18:57:31.712Z,4.40
2023-05-12T18:59:36.728Z,4.00
2023-05-12T19:01:41.389Z,3.70
2023-05-12T19:03:46.288Z,4.10
2023-05-12T19:05:51.648Z,3.70
2023-05-12T19:07:56.463Z,3.90
2023-05-12T19:10:01.404Z,3.80
2023-05-12T19:12:07.928Z,3.90
2023-05-12T19:14:12.636Z,4.20
2023-05-12T19:16:17.437Z,3.90
2023-05-12T19:18:22.164Z,4.30
2023-05-12T19:20:27.217Z,4.00
2023-05-12T19:22:31.954Z,4.50
2023-05-12T19:24:36.671Z,4.40
2023-05-12T19:26:41.321Z,5.00
2023-05-12T19:28:45.959Z,4.10
2023-05-12T19:30:50.661Z,4.60
2023-05-12T19:32:55.336Z,4.20
2023-05-12T19:35:03.220Z,4.30
2023-05-12T19:37:08.205Z,4.00
2023-05-12T19:39:13.122Z,4.20
2023-05-12T19:41:17.895Z,3.90
2023-05-12T19:43:22.493Z,3.50
2023-05-12T19:45:27.191Z,3.90
2023-05-12T19:47:31.980Z,3.90
2023-05-12T19:49:37.064Z,3.70
2023-05-12T19:51:41.897Z,4.00
2023-05-12T19:53:46.683Z,3.80
2023-05-12T19:55:51.350Z,4.20
2023-05-12T19:57:56.098Z,3.90
2023-05-12T20:00:01.294Z,4.20
2023-05-12T20:02:17.457Z,3.80
2023-05-12T20:04:25.936Z,4.00
2023-05-12T20:06:30.688Z,4.20
2023-05-12T20:08:35.419Z,4.00
2023-05-12T20:10:40.154Z,4.10
2023-05-12T20:12:44.909Z,4.40
2023-05-12T20:14:49.581Z,4.00
2023-05-12T20:16:54.909Z,4.50
2023-05-12T20:19:01.257Z,4.20
2023-05-12T20:21:07.565Z,4.90
2023-05-12T20:23:12.180Z,4.50
2023-05-12T20:25:16.982Z,4.70
2023-05-12T20:27:21.722Z,4.90
2023-05-12T20:29:26.418Z,4.90
2023-05-12T20:31:31.222Z,4.80
2023-05-12T20:33:35.804Z,4.40
2023-05-12T20:35:40.457Z,4.20
2023-05-12T20:37:45.296Z,4.60
2023-05-12T20:39:49.928Z,4.60
2023-05-12T20:41:54.643Z,4.10
2023-05-12T20:43:59.339Z,4.10
2023-05-12T20:46:05.920Z,4.30
2023-05-12T20:48:10.711Z,4.50
2023-05-12T20:50:15.411Z,4.20
2023-05-12T20:52:20.013Z,4.50
2023-05-12T20:54:24.737Z,4.50
2023-05-12T20:56:29.681Z,4.70
2023-05-12T20:58:34.321Z,4.50
2023-05-12T21:00:38.953Z,4.40
2023-05-12T21:02:43.711Z,4.60
2023-05-12T21:04:48.382Z,4.60
2023-05-12T21:06:53.732Z,4.50
2023-05-12T21:08:58.584Z,4.60
2023-05-12T21:11:03.247Z,4.80
2023-05-12T21:13:08.018Z,5.10
2023-05-12T21:15:13.027Z,4.70
2023-05-12T21:17:18.060Z,4.50
2023-05-12T21:19:22.660Z,5.00
2023-05-12T21:21:27.338Z,5.40
2023-05-12T21:23:32.041Z,5.70
2023-05-12T21:25:36.766Z,5.30
2023-05-12T21:27:41.649Z,4.80
2023-05-12T21:29:46.357Z,4.30
2023-05-12T21:31:50.974Z,4.70
2023-05-12T21:33:55.689Z,4.80
2023-05-12T21:36:00.331Z,5.60
2023-05-12T21:38:05.904Z,4.40
2023-05-12T21:40:12.146Z,5.60
2023-05-12T21:42:16.713Z,4.50
2023-05-12T21:44:21.312Z,4.30
2023-05-12T21:46:26.099Z,4.30
2023-05-12T21:48:30.895Z,5.10
2023-05-12T21:50:35.511Z,4.90
2023-05-12T21:52:40.622Z,4.50
2023-05-12T21:54:45.290Z,5.30
2023-05-12T21:56:49.984Z,5.10
2023-05-12T21:58:54.636Z,4.60
2023-05-12T22:01:02.046Z,5.00
2023-05-12T22:03:06.824Z,4.50
2023-05-12T22:05:11.699Z,4.20
2023-05-12T22:07:16.348Z,4.70
2023-05-12T22:09:20.978Z,4.30
2023-05-12T22:11:25.817Z,4.40
2023-05-12T22:13:30.551Z,4.00
2023-05-12T22:15:35.469Z,3.90
2023-05-12T22:17:40.752Z,4.10
2023-05-12T22:19:45.317Z,4.10
2023-05-12T22:21:51.512Z,4.20
2023-05-12T22:23:57.546Z,4.40
2023-05-12T22:26:02.489Z,4.50
2023-05-12T22:28:07.423Z,4.20
2023-05-12T22:30:13.576Z,4.10
2023-05-12T22:32:18.307Z,4.40
2023-05-12T22:34:22.949Z,4.00
2023-05-12T22:36:27.554Z,4.20
2023-05-12T22:38:32.223Z,4.30
2023-05-12T22:40:36.838Z,4.40
2023-05-12T22:42:41.420Z,4.40
2023-05-12T22:44:46.062Z,4.00
2023-05-12T22:46:50.798Z,4.50
2023-05-12T22:48:55.414Z,4.70
2023-05-12T22:50:59.989Z,4.20
2023-05-12T22:53:04.634Z,4.50
2023-05-12T22:55:10.406Z,4.80
2023-05-12T22:57:15.139Z,4.30
2023-05-12T22:59:19.781Z,4.80
2023-05-12T23:01:24.697Z,4.60
2023-05-12T23:03:30.003Z,5.10
2023-05-12T23:05:34.838Z,4.30
2023-05-12T23:07:39.504Z,4.60
2023-05-12T23:09:44.152Z,4.60
2023-05-12T23:11:49.150Z,4.70
2023-05-12T23:13:54.235Z,4.90
2023-05-12T23:15:58.934Z,4.50
2023-05-12T23:18:03.730Z,4.50
2023-05-12T23:20:12.527Z,4.20
2023-05-12T23:22:17.187Z,4.70
2023-05-12T23:24:22.164Z,4.60
2023-05-12T23:26:26.890Z,4.80
2023-05-12T23:28:31.524Z,4.70
2023-05-12T23:30:36.506Z,5.10
2023-05-12T23:32:41.439Z,4.90
2023-05-12T23:34:46.336Z,4.80
2023-05-12T23:36:51.006Z,4.90
2023-05-12T23:38:58.596Z,4.50
2023-05-12T23:41:03.187Z,4.80
2023-05-12T23:43:08.136Z,5.00
2023-05-12T23:45:13.138Z,4.70
2023-05-12T23:47:17.816Z,4.30
2023-05-12T23:49:22.412Z,4.60
2023-05-12T23:51:26.995Z,4.40
2023-05-12T23:53:31.695Z,4.70
2023-05-12T23:55:36.436Z,4.70
2023-05-12T23:57:41.095Z,4.70
2023-05-12T23:59:45.744Z,4.40
